Time;durP1;ratioP1;P1;durP2;ratioP2;P2;SDS_P1;SDS_P2;PMS_P1;PMS_P2;Temp;Humidity;BMP_temperature;BMP_pressure;BME280_temperature;BME280_humidity;BME280_pressure;Samples;Min_cycle;Max_cycle;Signal;HPM_P1;HPM_P2
2023/03/29 00:00:15;;;;;;;1.88;1.38;;;;;;;3.79;100.00;96292.53;1018301;29;20072;-65
2023/03/29 00:00:46;;;;;;;3.75;1.35;;;;;;;3.78;100.00;96296.09;1014699;29;20028;-65
2023/03/29 00:01:16;;;;;;;1.60;1.05;;;;;;;3.89;100.00;96298.06;1012867;29;20268;-63
2023/03/29 00:01:48;;;;;;;2.78;1.70;;;;;;;3.91;100.00;96297.84;1010504;29;20615;-65
2023/03/29 00:02:19;;;;;;;1.60;1.30;;;;;;;3.87;100.00;96300.06;1011104;29;20076;-62
2023/03/29 00:02:49;;;;;;;2.00;1.45;;;;;;;3.83;100.00;96293.69;1014241;29;20267;-64
2023/03/29 00:03:20;;;;;;;2.10;1.73;;;;;;;3.86;100.00;96314.06;1015154;29;20027;-63
2023/03/29 00:03:52;;;;;;;2.55;1.67;;;;;;;3.83;100.00;96309.28;1014268;29;20127;-65
2023/03/29 00:04:26;;;;;;;6.10;1.80;;;;;;;3.75;100.00;96306.88;1010386;29;20139;-64
2023/03/29 00:05:00;;;;;;;2.63;1.90;;;;;;;3.66;100.00;96306.34;1011407;29;20273;-64
2023/03/29 00:05:33;;;;;;;2.42;1.80;;;;;;;3.63;100.00;96303.34;1014125;29;20263;-64
2023/03/29 00:06:04;;;;;;;3.13;1.90;;;;;;;3.60;100.00;96307.16;1014706;29;20284;-64
2023/03/29 00:06:35;;;;;;;2.88;1.65;;;;;;;3.57;100.00;96311.94;1014132;29;20264;-66
2023/03/29 00:07:06;;;;;;;1.77;1.45;;;;;;;3.56;100.00;96305.19;1015829;29;20024;-64
2023/03/29 00:07:36;;;;;;;3.40;2.15;;;;;;;3.53;100.00;96316.75;1018427;29;20100;-63
2023/03/29 00:08:07;;;;;;;2.75;1.73;;;;;;;3.51;100.00;96321.34;1022140;29;20031;-63
2023/03/29 00:08:37;;;;;;;3.75;1.98;;;;;;;3.50;100.00;96317.94;1018352;29;20430;-64
2023/03/29 00:09:09;;;;;;;2.75;1.63;;;;;;;3.49;100.00;96321.56;1018715;29;20035;-64
2023/03/29 00:09:39;;;;;;;3.88;1.75;;;;;;;3.50;100.00;96323.13;1018050;29;20071;-63
2023/03/29 00:10:10;;;;;;;6.32;2.08;;;;;;;3.46;100.00;96321.94;1018747;29;20756;-65
2023/03/29 00:10:41;;;;;;;2.40;2.08;;;;;;;3.47;100.00;96320.16;1018273;29;20055;-64
2023/03/29 00:11:12;;;;;;;2.95;2.13;;;;;;;3.44;100.00;96323.16;1018513;29;20263;-64
2023/03/29 00:11:42;;;;;;;2.95;2.00;;;;;;;3.42;100.00;96331.16;1022225;29;20050;-64
2023/03/29 00:12:13;;;;;;;2.63;1.90;;;;;;;3.38;100.00;96332.53;1022441;28;20039;-65
2023/03/29 00:12:43;;;;;;;2.20;1.73;;;;;;;3.35;100.00;96332.94;1026148;28;20073;-65
2023/03/29 00:13:14;;;;;;;2.85;1.73;;;;;;;3.28;100.00;96319.19;1026248;28;20783;-64
2023/03/29 00:13:44;;;;;;;5.18;2.00;;;;;;;3.30;100.00;96328.34;1013951;29;20028;-64
2023/03/29 00:14:15;;;;;;;4.45;2.13;;;;;;;3.29;100.00;96331.16;1014947;29;20513;-65
2023/03/29 00:14:45;;;;;;;3.55;2.20;;;;;;;3.27;100.00;96333.16;1013621;29;20435;-63
2023/03/29 00:15:16;;;;;;;3.38;2.15;;;;;;;3.29;100.00;96328.56;1014367;29;20028;-65
2023/03/29 00:15:46;;;;;;;4.40;2.50;;;;;;;3.27;100.00;96322.78;1014310;29;20038;-64
2023/03/29 00:16:17;;;;;;;5.10;2.20;;;;;;;3.26;100.00;96327.16;1014582;29;20012;-65
2023/03/29 00:16:47;;;;;;;2.60;1.90;;;;;;;3.27;100.00;96323.56;1018246;29;20695;-64
2023/03/29 00:17:18;;;;;;;3.72;1.65;;;;;;;3.28;100.00;96324.38;1018682;29;20024;-63
2023/03/29 00:17:48;;;;;;;3.42;1.65;;;;;;;3.25;100.00;96314.38;1018279;29;20027;-63
2023/03/29 00:18:19;;;;;;;3.63;1.48;;;;;;;3.36;100.00;96329.34;1014632;29;20050;-63
2023/03/29 00:18:50;;;;;;;2.17;1.50;;;;;;;3.35;100.00;96329.53;1014663;29;20035;-63
2023/03/29 00:19:20;;;;;;;1.98;1.50;;;;;;;3.41;100.00;96326.94;1018416;29;20199;-63
2023/03/29 00:19:50;;;;;;;2.88;1.35;;;;;;;3.48;100.00;96319.13;1014430;29;20475;-62
2023/03/29 00:20:21;;;;;;;1.13;0.93;;;;;;;3.60;100.00;96321.91;1014418;29;20020;-64
2023/03/29 00:20:55;;;;;;;1.10;0.80;;;;;;;3.61;100.00;96324.31;1014351;29;20489;-64
2023/03/29 00:21:26;;;;;;;1.70;1.30;;;;;;;3.62;100.00;96331.09;1015259;29;20107;-65
2023/03/29 00:21:56;;;;;;;1.70;1.10;;;;;;;3.58;100.00;96329.91;1020351;29;20263;-64
2023/03/29 00:22:27;;;;;;;2.75;1.50;;;;;;;3.54;100.00;96328.72;1023271;28;20027;-64
2023/03/29 00:22:57;;;;;;;1.00;0.90;;;;;;;3.52;100.00;96330.69;1026094;28;20441;-66
2023/03/29 00:23:28;;;;;;;1.73;1.20;;;;;;;3.50;100.00;96323.13;1026465;28;20034;-64
2023/03/29 00:23:58;;;;;;;1.52;1.25;;;;;;;3.50;100.00;96323.13;1026707;28;20037;-64
2023/03/29 00:24:29;;;;;;;1.20;1.10;;;;;;;3.50;100.00;96327.53;1025599;28;20022;-64
2023/03/29 00:24:59;;;;;;;1.80;1.17;;;;;;;3.49;100.00;96323.34;1025772;28;20023;-64
2023/03/29 00:25:30;;;;;;;1.40;1.20;;;;;;;3.48;100.00;96325.13;1026391;28;20483;-63
2023/03/29 00:26:00;;;;;;;2.55;1.50;;;;;;;3.47;100.00;96323.53;1026275;28;20081;-65
2023/03/29 00:26:31;;;;;;;2.15;1.27;;;;;;;3.47;100.00;96317.56;1026183;28;20381;-63
2023/03/29 00:27:01;;;;;;;1.92;1.10;;;;;;;3.46;100.00;96321.16;1022117;29;20035;-65
2023/03/29 00:27:32;;;;;;;1.90;1.27;;;;;;;3.42;100.00;96320.78;1018357;29;20027;-64
2023/03/29 00:28:02;;;;;;;1.77;1.20;;;;;;;3.45;100.00;96328.13;1014350;29;20573;-64
2023/03/29 00:28:33;;;;;;;1.67;1.00;;;;;;;3.46;100.00;96321.16;1014358;29;20058;-64
2023/03/29 00:29:03;;;;;;;5.88;1.40;;;;;;;3.47;100.00;96326.13;1018271;29;20024;-65
2023/03/29 00:29:34;;;;;;;1.75;1.33;;;;;;;3.48;100.00;96322.53;1010557;29;20028;-61
2023/03/29 00:30:06;;;;;;;1.77;1.08;;;;;;;3.48;100.00;96319.13;1014378;29;20024;-64
2023/03/29 00:30:36;;;;;;;1.10;1.00;;;;;;;3.48;100.00;96319.94;1010258;29;20475;-64
2023/03/29 00:31:11;;;;;;;1.55;1.17;;;;;;;3.44;100.00;96313.56;1007159;29;20261;-63
2023/03/29 00:31:44;;;;;;;1.85;0.93;;;;;;;3.50;100.00;96317.16;1018245;29;20521;-63
2023/03/29 00:32:15;;;;;;;0.82;0.80;;;;;;;3.51;100.00;96329.13;1017343;29;20650;-63
2023/03/29 00:32:45;;;;;;;1.05;0.90;;;;;;;3.43;100.00;96311.97;1015194;29;20274;-65
2023/03/29 00:33:19;;;;;;;1.35;1.00;;;;;;;3.50;100.00;96317.94;1019009;29;20533;-63
2023/03/29 00:33:49;;;;;;;1.52;0.90;;;;;;;3.50;100.00;96320.53;1018354;29;20027;-64
2023/03/29 00:34:21;;;;;;;1.30;1.20;;;;;;;3.45;100.00;96309.97;1018181;29;20270;-66
2023/03/29 00:34:51;;;;;;;1.55;1.17;;;;;;;3.51;100.00;96323.94;1009860;29;20045;-62
2023/03/29 00:35:22;;;;;;;1.42;0.93;;;;;;;3.52;100.00;96320.31;1010630;29;20269;-65
2023/03/29 00:35:53;;;;;;;3.22;1.20;;;;;;;3.50;100.00;96323.13;1014185;29;20486;-64
2023/03/29 00:36:23;;;;;;;2.55;1.45;;;;;;;3.49;100.00;96311.16;1014325;29;20096;-63
2023/03/29 00:36:56;;;;;;;1.75;1.20;;;;;;;3.44;100.00;96307.59;1014028;29;20032;-64
2023/03/29 00:37:28;;;;;;;1.55;1.10;;;;;;;3.45;100.00;96309.97;1014349;29;20433;-64
2023/03/29 00:37:59;;;;;;;1.67;1.17;;;;;;;3.45;100.00;96307.38;1018671;29;20310;-64
2023/03/29 00:38:30;;;;;;;1.35;1.10;;;;;;;3.31;100.00;96292.84;1018086;29;20267;-64
2023/03/29 00:39:00;;;;;;;2.05;1.42;;;;;;;3.42;100.00;96307.81;1015114;29;20040;-64
2023/03/29 00:39:31;;;;;;;1.88;1.25;;;;;;;3.43;100.00;96311.19;1014242;29;20805;-64
2023/03/29 00:40:03;;;;;;;1.63;1.10;;;;;;;3.40;100.00;96314.19;1014267;29;20036;-64
2023/03/29 00:40:39;;;;;;;2.40;1.30;;;;;;;3.41;100.00;96308.78;1018761;29;20031;-64
2023/03/29 00:41:10;;;;;;;2.88;2.10;;;;;;;3.40;100.00;96312.38;1019081;29;20722;-64
2023/03/29 00:41:40;;;;;;;2.17;1.33;;;;;;;3.38;100.00;96304.00;1022284;29;20266;-64
2023/03/29 00:42:12;;;;;;;3.58;1.42;;;;;;;3.37;100.00;96304.22;1018147;29;20272;-64
2023/03/29 00:42:44;;;;;;;2.50;1.40;;;;;;;3.36;100.00;96308.59;1014388;29;20461;-63
2023/03/29 00:43:14;;;;;;;1.23;1.10;;;;;;;3.36;100.00;96300.81;1018262;29;20271;-64
2023/03/29 00:43:52;;;;;;;3.40;2.42;;;;;;;3.35;100.00;96309.59;1014591;29;20565;-65
2023/03/29 00:44:54;;;;;;;4.03;1.20;;;;;;;3.33;100.00;96300.44;1020610;28;20023;-65
2023/03/29 00:45:29;;;;;;;2.17;1.40;;;;;;;3.24;100.00;96289.47;1026251;28;20254;-64
2023/03/29 00:45:59;;;;;;;2.15;1.40;;;;;;;3.27;100.00;96294.25;1022241;29;20736;-64
2023/03/29 00:46:30;;;;;;;1.85;1.08;;;;;;;3.28;100.00;96301.03;1022091;29;20282;-64
2023/03/29 00:47:00;;;;;;;2.50;1.48;;;;;;;3.27;100.00;96302.81;1018351;29;20035;-64
2023/03/29 00:47:41;;;;;;;4.78;1.67;;;;;;;3.26;100.00;96301.25;1010656;29;20088;-64
2023/03/29 00:48:12;;;;;;;2.45;1.50;;;;;;;3.20;100.00;96289.06;1010391;29;20025;-63
2023/03/29 00:48:42;;;;;;;1.90;1.33;;;;;;;3.24;100.00;96298.03;1012182;29;20024;-64
2023/03/29 00:49:14;;;;;;;1.77;1.40;;;;;;;3.22;100.00;96300.06;1015466;29;20256;-63
2023/03/29 00:49:44;;;;;;;5.60;1.33;;;;;;;3.24;100.00;96295.44;1015026;29;20041;-64
2023/03/29 00:50:36;;;;;;;2.08;1.60;;;;;;;3.24;100.00;96294.66;1010413;29;20304;-64
2023/03/29 00:51:07;;;;;;;1.67;1.45;;;;;;;3.20;100.00;96290.88;1010449;29;20025;-63
2023/03/29 00:51:38;;;;;;;1.50;1.08;;;;;;;3.20;100.00;96298.66;1010402;29;20747;-63
2023/03/29 00:52:08;;;;;;;2.25;1.50;;;;;;;3.18;100.00;96292.88;1012303;29;20264;-64
2023/03/29 00:52:39;;;;;;;3.92;1.33;;;;;;;3.11;100.00;96276.53;1010649;29;20566;-61
2023/03/29 00:53:11;;;;;;;3.13;1.67;;;;;;;3.15;100.00;96290.66;1010468;29;20547;-64
2023/03/29 00:53:47;;;;;;;3.00;1.52;;;;;;;3.13;100.00;96288.28;1014604;29;20052;-63
2023/03/29 00:54:18;;;;;;;2.70;1.63;;;;;;;3.12;100.00;96294.50;1015185;29;20778;-64
2023/03/29 00:54:51;;;;;;;1.90;1.20;;;;;;;3.11;100.00;96281.72;1014534;29;20746;-61
2023/03/29 00:55:22;;;;;;;2.50;1.48;;;;;;;3.14;100.00;96292.47;1014492;29;20802;-65
2023/03/29 00:55:54;;;;;;;2.80;1.80;;;;;;;3.11;100.00;96286.91;1006561;29;20380;-64
2023/03/29 00:56:29;;;;;;;2.45;1.70;;;;;;;3.10;100.00;96287.91;1010345;29;20299;-63
2023/03/29 00:57:02;;;;;;;2.60;1.58;;;;;;;3.07;100.00;96286.50;1014371;29;20345;-65
2023/03/29 00:57:33;;;;;;;1.60;1.48;;;;;;;3.06;100.00;96283.13;1018214;29;20263;-63
2023/03/29 00:58:04;;;;;;;3.33;1.50;;;;;;;3.04;100.00;96285.09;1014425;29;20267;-64
2023/03/29 00:59:07;;;;;;;2.10;1.10;;;;;;;3.04;100.00;96279.91;1014304;29;20454;-65
2023/03/29 00:59:38;;;;;;;2.53;1.80;;;;;;;3.05;100.00;96280.72;1010152;29;20613;-64
2023/03/29 01:00:09;;;;;;;2.20;1.67;;;;;;;3.06;100.00;96284.91;1007738;29;20410;-64
2023/03/29 01:00:46;;;;;;;2.35;1.27;;;;;;;3.04;100.00;96277.31;1014914;29;20028;-64
2023/03/29 01:01:19;;;;;;;2.05;1.27;;;;;;;2.97;100.00;96275.75;1010364;29;20352;-64
2023/03/29 01:01:56;;;;;;;2.25;1.70;;;;;;;3.00;100.00;96286.50;1017971;29;20259;-65
2023/03/29 01:02:27;;;;;;;2.55;1.63;;;;;;;2.86;100.00;96259.00;1014505;29;20477;-64
2023/03/29 01:02:59;;;;;;;3.22;1.40;;;;;;;3.00;100.00;96281.31;1018574;29;20275;-64
2023/03/29 01:03:33;;;;;;;2.47;1.60;;;;;;;3.00;100.00;96281.31;1019319;29;20302;-65
2023/03/29 01:04:18;;;;;;;4.82;1.30;;;;;;;2.98;100.00;96282.50;1018822;29;20278;-64
2023/03/29 01:04:57;;;;;;;2.17;1.50;;;;;;;2.95;100.00;96278.56;1019557;29;20342;-63
2023/03/29 01:05:37;;;;;;;4.75;1.63;;;;;;;2.94;100.00;96271.75;1022894;29;20698;-64
2023/03/29 01:06:08;;;;;;;6.63;1.80;;;;;;;2.92;100.00;96268.59;1018896;29;20375;-63
2023/03/29 01:06:42;;;;;;;3.20;1.75;;;;;;;2.90;100.00;96269.78;1018956;29;20780;-62
2023/03/29 01:07:23;;;;;;;3.25;1.75;;;;;;;2.85;100.00;96262.63;1015034;29;20024;-64
2023/03/29 01:07:59;;;;;;;3.78;1.77;;;;;;;2.77;100.00;96257.63;1015523;29;20303;-65
2023/03/29 01:08:55;;;;;;;1.80;1.35;;;;;;;2.80;100.00;96265.00;1018844;29;20781;-64
2023/03/29 01:09:26;;;;;;;3.53;1.45;;;;;;;2.79;100.00;96261.59;1018913;29;20322;-64
2023/03/29 01:10:11;;;;;;;2.42;1.80;;;;;;;2.79;100.00;96263.41;1018195;29;20714;-64
2023/03/29 01:10:52;;;;;;;5.20;1.65;;;;;;;2.77;100.00;96255.81;1022825;29;20065;-63
2023/03/29 01:11:59;;;;;;;2.60;1.33;;;;;;;2.75;100.00;96259.59;1019338;29;20260;-64
2023/03/29 01:12:34;;;;;;;1.90;1.60;;;;;;;2.75;100.00;96257.00;1008538;29;20699;-65
2023/03/29 01:13:08;;;;;;;1.73;1.60;;;;;;;2.71;100.00;96250.63;1012646;29;20285;-65
2023/03/29 01:14:01;;;;;;;1.85;1.60;;;;;;;2.71;100.00;96251.44;1014786;29;20407;-64
2023/03/29 01:14:37;;;;;;;1.85;1.55;;;;;;;2.70;100.00;96254.22;1010934;29;20320;-63
2023/03/29 01:15:09;;;;;;;2.28;1.83;;;;;;;2.69;100.00;96257.84;1014710;29;20363;-64
2023/03/29 01:15:40;;;;;;;4.38;2.47;;;;;;;2.70;100.00;96254.22;1015166;29;20260;-66
2023/03/29 01:16:11;;;;;;;6.75;2.05;;;;;;;2.68;100.00;96246.66;1014783;29;20266;-65
2023/03/29 01:16:42;;;;;;;2.13;1.60;;;;;;;2.71;100.00;96250.63;1022629;29;20266;-64
2023/03/29 01:17:12;;;;;;;2.45;1.52;;;;;;;2.69;100.00;96257.84;1023127;29;20062;-64
2023/03/29 01:17:48;;;;;;;2.47;1.77;;;;;;;2.68;100.00;96256.22;1018875;29;20055;-63
2023/03/29 01:18:21;;;;;;;1.95;1.67;;;;;;;2.49;100.00;96217.19;1018958;29;20043;-67
2023/03/29 01:18:52;;;;;;;2.22;1.60;;;;;;;2.68;100.00;96257.00;1016082;29;20256;-64
2023/03/29 01:19:25;;;;;;;3.08;1.75;;;;;;;2.70;100.00;96264.59;1020125;29;20247;-64
2023/03/29 01:20:12;;;;;;;2.63;1.50;;;;;;;2.68;100.00;96258.81;1018905;29;20079;-65
2023/03/29 01:20:54;;;;;;;3.03;2.00;;;;;;;2.71;100.00;96261.00;1014799;29;20440;-64
2023/03/29 01:21:35;;;;;;;2.67;1.85;;;;;;;2.70;100.00;96251.66;1011218;29;20257;-64
2023/03/29 01:22:41;;;;;;;5.28;1.83;;;;;;;2.67;100.00;96241.69;1014247;29;20315;-65
2023/03/29 01:23:44;;;;;;;2.28;1.90;;;;;;;2.69;100.00;96244.88;1020027;29;20263;-63
2023/03/29 01:24:29;;;;;;;3.17;1.90;;;;;;;2.67;100.00;96236.50;1017821;29;20292;-64
2023/03/29 01:25:15;;;;;;;2.90;2.00;;;;;;;2.67;100.00;96241.69;1024015;28;20908;-65
2023/03/29 01:26:06;;;;;;;2.45;1.90;;;;;;;2.66;100.00;96232.31;1022968;29;20263;-64
2023/03/29 01:27:15;;;;;;;2.67;1.80;;;;;;;2.64;100.00;96229.91;1022944;29;20752;-66
2023/03/29 01:27:48;;;;;;;2.65;1.80;;;;;;;2.65;100.00;96220.34;1022659;29;20082;-64
2023/03/29 01:28:27;;;;;;;2.13;1.75;;;;;;;2.65;100.00;96222.94;1023163;29;20330;-65
2023/03/29 01:29:08;;;;;;;3.22;1.90;;;;;;;2.64;100.00;96221.34;1022492;28;20810;-65
2023/03/29 01:29:41;;;;;;;4.68;1.60;;;;;;;2.63;100.00;96223.16;1023193;29;20290;-64
2023/03/29 01:30:13;;;;;;;4.80;1.92;;;;;;;2.61;100.00;96222.53;1018869;29;20937;-63
2023/03/29 01:30:52;;;;;;;3.55;2.03;;;;;;;2.60;100.00;96223.53;1024861;28;20267;-65
2023/03/29 01:31:25;;;;;;;3.30;1.83;;;;;;;2.62;100.00;96226.75;1014795;29;20355;-65
2023/03/29 01:32:16;;;;;;;3.42;2.15;;;;;;;2.62;100.00;96225.94;1014781;29;20280;-64
2023/03/29 01:32:55;;;;;;;3.35;2.00;;;;;;;2.62;100.00;96220.78;1018729;29;20267;-64
2023/03/29 01:33:28;;;;;;;2.28;1.75;;;;;;;2.63;100.00;96223.16;1023076;29;20044;-65
2023/03/29 01:34:10;;;;;;;2.97;2.03;;;;;;;2.56;100.00;96212.00;1010876;29;20056;-64
2023/03/29 01:35:16;;;;;;;2.17;1.80;;;;;;;2.62;100.00;96215.59;1010410;29;20702;-65
2023/03/29 01:35:56;;;;;;;3.53;2.03;;;;;;;2.58;100.00;96210.81;1019251;29;20705;-65
2023/03/29 01:36:30;;;;;;;2.83;1.83;;;;;;;2.58;100.00;96210.81;1019147;29;20263;-63
2023/03/29 01:37:10;;;;;;;3.70;2.17;;;;;;;2.60;100.00;96219.16;1014737;29;20031;-64
2023/03/29 01:37:48;;;;;;;4.72;2.00;;;;;;;2.60;100.00;96215.78;1014913;29;20327;-64
2023/03/29 01:38:22;;;;;;;2.10;1.55;;;;;;;2.58;100.00;96216.00;1017752;29;20020;-63
2023/03/29 01:38:54;;;;;;;3.83;1.80;;;;;;;2.59;100.00;96214.97;1010991;29;20272;-64
2023/03/29 01:39:25;;;;;;;1.80;1.52;;;;;;;2.60;100.00;96203.63;1012682;29;20708;-64
2023/03/29 01:39:56;;;;;;;2.42;1.77;;;;;;;2.59;100.00;96198.66;1014867;29;20265;-65
2023/03/29 01:40:27;;;;;;;1.90;1.55;;;;;;;2.58;100.00;96199.63;1015744;29;20035;-63
2023/03/29 01:40:57;;;;;;;2.10;1.65;;;;;;;2.59;100.00;96194.25;1022603;29;20027;-64
2023/03/29 01:42:19;;;;;;;3.53;1.90;;;;;;;2.59;100.00;96202.03;1022565;28;20023;-65
2023/03/29 01:43:05;;;;;;;4.13;2.10;;;;;;;2.60;100.00;96208.00;1006738;29;20447;-63
2023/03/29 01:43:44;;;;;;;3.08;1.77;;;;;;;2.58;100.00;96204.81;1014726;29;20257;-64
2023/03/29 01:44:38;;;;;;;4.45;2.33;;;;;;;2.58;100.00;96215.16;1014915;29;20743;-64
2023/03/29 01:45:25;;;;;;;2.90;1.80;;;;;;;2.57;100.00;96216.97;1012230;29;20257;-64
2023/03/29 01:46:10;;;;;;;2.95;1.95;;;;;;;2.57;100.00;96208.41;1022623;28;20926;-64
2023/03/29 01:46:43;;;;;;;4.50;1.83;;;;;;;2.56;100.00;96207.59;1027329;28;20290;-65
2023/03/29 01:47:28;;;;;;;4.68;1.98;;;;;;;2.56;100.00;96201.63;1027486;28;20262;-65
2023/03/29 01:48:01;;;;;;;3.92;1.98;;;;;;;2.54;100.00;96204.41;1015263;29;20291;-64
2023/03/29 01:48:45;;;;;;;2.58;1.77;;;;;;;2.50;100.00;96202.44;1015798;29;20276;-64
2023/03/29 01:49:38;;;;;;;4.90;1.58;;;;;;;2.54;100.00;96214.78;1011286;29;20696;-64
2023/03/29 01:50:14;;;;;;;2.10;1.80;;;;;;;2.55;100.00;96220.78;1015433;29;20717;-64
2023/03/29 01:50:53;;;;;;;3.25;2.45;;;;;;;2.53;100.00;96218.38;1011561;29;20268;-64
2023/03/29 01:51:34;;;;;;;3.08;1.70;;;;;;;2.54;100.00;96214.78;1015408;29;20381;-64
2023/03/29 01:52:13;;;;;;;2.30;1.75;;;;;;;2.50;100.00;96213.59;1019009;29;20292;-64
2023/03/29 01:53:09;;;;;;;3.17;1.88;;;;;;;2.36;100.00;96186.91;1011804;29;20269;-64
2023/03/29 01:53:43;;;;;;;4.85;2.03;;;;;;;2.51;100.00;96215.16;1019189;29;20287;-60
2023/03/29 01:54:29;;;;;;;2.35;1.75;;;;;;;2.50;100.00;96218.75;1015605;29;20723;-64
2023/03/29 01:55:04;;;;;;;2.53;1.80;;;;;;;2.50;100.00;96207.59;1022921;29;20781;-64
2023/03/29 01:55:37;;;;;;;4.18;1.83;;;;;;;2.51;100.00;96210.00;1019423;29;20347;-64
2023/03/29 01:56:13;;;;;;;2.35;1.95;;;;;;;2.51;100.00;96212.56;1020513;29;20267;-64
2023/03/29 01:56:44;;;;;;;2.58;1.65;;;;;;;2.49;100.00;96211.22;1023419;29;21073;-64
2023/03/29 01:57:14;;;;;;;4.03;1.40;;;;;;;2.51;100.00;96211.78;1019013;29;20264;-65
2023/03/29 01:57:45;;;;;;;3.03;1.88;;;;;;;2.51;100.00;96216.97;1014921;29;20301;-64
2023/03/29 01:58:16;;;;;;;3.83;2.03;;;;;;;2.50;100.00;96212.78;1015103;29;20430;-64
2023/03/29 01:58:48;;;;;;;2.35;1.77;;;;;;;2.49;100.00;96201.63;1018845;29;20024;-64
2023/03/29 01:59:25;;;;;;;3.17;2.40;;;;;;;2.50;100.00;96208.41;1007695;29;20036;-64
2023/03/29 01:59:56;;;;;;;3.08;1.92;;;;;;;2.49;100.00;96208.63;1011116;29;20401;-64
2023/03/29 02:00:28;;;;;;;2.17;1.92;;;;;;;2.45;100.00;96202.22;1015008;29;20272;-64
2023/03/29 02:00:59;;;;;;;3.35;1.80;;;;;;;2.48;100.00;96207.81;1019194;29;20564;-64
2023/03/29 02:01:33;;;;;;;4.10;2.33;;;;;;;2.45;100.00;96195.28;1014767;29;20752;-65
2023/03/29 02:02:04;;;;;;;4.55;1.90;;;;;;;2.52;100.00;96209.00;1014797;29;20482;-64
2023/03/29 02:02:34;;;;;;;3.97;1.80;;;;;;;2.52;100.00;96203.84;1014978;29;20264;-64
2023/03/29 02:03:06;;;;;;;2.58;1.73;;;;;;;2.47;100.00;96197.66;1018870;29;20263;-63
2023/03/29 02:03:41;;;;;;;3.05;1.90;;;;;;;2.54;100.00;96207.00;1015236;29;20024;-64
2023/03/29 02:04:12;;;;;;;3.05;2.10;;;;;;;2.49;100.00;96199.03;1014772;29;20264;-64
2023/03/29 02:04:48;;;;;;;3.97;2.22;;;;;;;2.54;100.00;96204.41;1018486;29;20260;-65
2023/03/29 02:05:19;;;;;;;3.45;2.30;;;;;;;2.50;100.00;96203.22;1018886;29;20492;-64
2023/03/29 02:05:50;;;;;;;3.33;2.17;;;;;;;2.49;100.00;96201.63;1019097;29;20590;-64
2023/03/29 02:06:23;;;;;;;4.10;2.00;;;;;;;2.48;100.00;96194.06;1015847;29;20058;-65
2023/03/29 02:06:54;;;;;;;2.60;1.75;;;;;;;2.51;100.00;96199.63;1019341;29;20283;-63
2023/03/29 02:07:26;;;;;;;2.70;2.10;;;;;;;2.50;100.00;96202.44;1022853;29;20724;-65
2023/03/29 02:07:56;;;;;;;4.20;1.98;;;;;;;2.49;100.00;96198.25;1026446;28;20270;-64
2023/03/29 02:08:27;;;;;;;5.25;2.28;;;;;;;2.49;100.00;96193.06;1026267;28;20266;-66
2023/03/29 02:08:57;;;;;;;2.47;1.70;;;;;;;2.50;100.00;96198.03;1016956;29;20474;-64
2023/03/29 02:09:28;;;;;;;2.80;2.20;;;;;;;2.50;100.00;96192.88;1015142;29;20063;-63
2023/03/29 02:09:58;;;;;;;3.75;1.70;;;;;;;2.44;100.00;96187.69;1011113;29;20024;-63
2023/03/29 02:10:29;;;;;;;3.50;2.15;;;;;;;2.51;100.00;96199.63;1016200;29;20051;-64
2023/03/29 02:11:00;;;;;;;3.15;1.95;;;;;;;2.50;100.00;96192.88;1019096;29;20397;-65
2023/03/29 02:11:30;;;;;;;2.58;1.75;;;;;;;2.50;100.00;96200.63;1024054;28;20023;-65
2023/03/29 02:12:01;;;;;;;2.25;1.60;;;;;;;2.51;100.00;96196.25;1015102;29;20497;-65
2023/03/29 02:12:32;;;;;;;2.75;2.08;;;;;;;2.46;100.00;96186.50;1013349;29;20064;-64
2023/03/29 02:13:03;;;;;;;2.92;1.80;;;;;;;2.51;100.00;96194.44;1011299;29;20029;-63
2023/03/29 02:13:34;;;;;;;1.98;1.65;;;;;;;2.50;100.00;96187.69;1017755;29;20404;-65
2023/03/29 02:14:05;;;;;;;2.58;1.42;;;;;;;2.51;100.00;96194.44;1016129;29;20276;-64
2023/03/29 02:14:35;;;;;;;2.30;1.85;;;;;;;2.53;100.00;96186.50;1017747;29;20867;-64
2023/03/29 02:15:10;;;;;;;2.30;1.90;;;;;;;2.53;100.00;96187.28;1014836;29;20043;-64
2023/03/29 02:15:43;;;;;;;3.08;2.08;;;;;;;2.53;100.00;96182.09;1019649;29;20331;-65
2023/03/29 02:16:14;;;;;;;2.55;1.83;;;;;;;2.46;100.00;96176.13;1023761;28;20310;-64
2023/03/29 02:16:45;;;;;;;4.85;2.05;;;;;;;2.48;100.00;96175.91;1023411;28;20598;-65
2023/03/29 02:17:22;;;;;;;4.20;1.75;;;;;;;2.54;100.00;96188.88;1027190;28;20026;-65
2023/03/29 02:17:53;;;;;;;2.92;1.65;;;;;;;2.54;100.00;96185.50;1026836;28;20022;-64
2023/03/29 02:18:24;;;;;;;3.50;1.60;;;;;;;2.54;100.00;96188.88;1027902;28;20332;-64
2023/03/29 02:18:55;;;;;;;1.85;1.45;;;;;;;2.55;100.00;96180.13;1026516;28;20274;-64
2023/03/29 02:19:26;;;;;;;3.40;1.70;;;;;;;2.55;100.00;96184.50;1026840;28;20269;-64
2023/03/29 02:20:13;;;;;;;4.53;1.75;;;;;;;2.56;100.00;96181.72;1022615;29;20039;-64
2023/03/29 02:20:46;;;;;;;2.22;1.60;;;;;;;2.50;100.00;96173.94;1022633;29;20266;-64
2023/03/29 02:21:35;;;;;;;3.58;2.00;;;;;;;2.55;100.00;96179.34;1019011;29;20283;-64
2023/03/29 02:22:07;;;;;;;2.55;1.55;;;;;;;2.56;100.00;96181.72;1018173;28;20255;-64
2023/03/29 02:22:39;;;;;;;2.03;1.33;;;;;;;2.57;100.00;96183.28;1023585;29;20752;-65
2023/03/29 02:23:14;;;;;;;3.42;1.90;;;;;;;2.49;100.00;96174.94;1026021;28;20278;-64
2023/03/29 02:23:44;;;;;;;2.63;1.70;;;;;;;2.55;100.00;96185.31;1017454;29;20275;-64
2023/03/29 02:24:15;;;;;;;1.90;1.70;;;;;;;2.56;100.00;96180.91;1016851;29;20355;-64
2023/03/29 02:24:46;;;;;;;2.55;1.80;;;;;;;2.54;100.00;96178.50;1015115;29;20525;-64
2023/03/29 02:25:16;;;;;;;2.15;1.65;;;;;;;2.50;100.00;96172.16;1019334;29;20031;-63
2023/03/29 02:25:47;;;;;;;2.50;1.83;;;;;;;2.56;100.00;96180.91;1019862;29;20028;-64
2023/03/29 02:26:18;;;;;;;3.00;2.00;;;;;;;2.55;100.00;96180.13;1023441;28;20027;-65
2023/03/29 02:26:48;;;;;;;1.70;1.60;;;;;;;2.55;100.00;96182.72;1023115;29;20114;-64
2023/03/29 02:27:19;;;;;;;2.72;2.08;;;;;;;2.55;100.00;96169.75;1020318;29;20398;-63
2023/03/29 02:27:50;;;;;;;3.00;2.17;;;;;;;2.54;100.00;96175.91;1019726;29;20024;-64
2023/03/29 02:28:21;;;;;;;4.43;1.98;;;;;;;2.55;100.00;96174.94;1020053;29;20568;-63
2023/03/29 02:28:52;;;;;;;1.95;1.60;;;;;;;2.55;100.00;96174.94;1019684;29;20282;-65
2023/03/29 02:29:22;;;;;;;3.03;1.98;;;;;;;2.54;100.00;96168.16;1019832;29;20036;-63
2023/03/29 02:29:53;;;;;;;2.58;2.05;;;;;;;2.56;100.00;96183.50;1015879;29;20043;-63
2023/03/29 02:30:24;;;;;;;2.10;1.60;;;;;;;2.54;100.00;96168.16;1019653;29;20035;-66
2023/03/29 02:31:17;;;;;;;3.72;1.50;;;;;;;2.56;100.00;96181.72;1023789;29;20489;-64
2023/03/29 02:31:54;;;;;;;2.05;1.52;;;;;;;2.55;100.00;96168.97;1019361;29;20259;-64
2023/03/29 02:32:34;;;;;;;3.83;1.60;;;;;;;2.54;100.00;96170.72;1019732;29;20282;-64
2023/03/29 02:33:32;;;;;;;2.80;1.73;;;;;;;2.51;100.00;96163.38;1011733;29;20265;-63
2023/03/29 02:34:31;;;;;;;3.47;2.10;;;;;;;2.56;100.00;96160.19;1009740;29;20068;-63
2023/03/29 02:35:05;;;;;;;2.42;1.80;;;;;;;2.54;100.00;96169.94;1019127;29;20327;-64
2023/03/29 02:35:52;;;;;;;4.53;1.80;;;;;;;2.55;100.00;96163.78;1011915;29;20267;-65
2023/03/29 02:36:46;;;;;;;3.30;1.92;;;;;;;2.53;100.00;96165.78;1015860;29;20339;-64
2023/03/29 02:37:17;;;;;;;2.00;1.63;;;;;;;2.46;100.00;96155.41;1022332;28;20640;-63
2023/03/29 02:37:50;;;;;;;3.63;1.90;;;;;;;2.50;100.00;96161.00;1023590;29;20636;-64
2023/03/29 02:38:20;;;;;;;3.28;2.15;;;;;;;2.51;100.00;96158.19;1019338;29;20753;-63
2023/03/29 02:38:51;;;;;;;2.83;1.58;;;;;;;2.52;100.00;96159.78;1019767;29;20271;-63
2023/03/29 02:39:24;;;;;;;3.10;1.70;;;;;;;2.51;100.00;96158.19;1015814;29;20111;-64
2023/03/29 02:39:54;;;;;;;2.72;1.90;;;;;;;2.49;100.00;96149.84;1020053;29;20283;-64
2023/03/29 02:40:25;;;;;;;5.07;2.08;;;;;;;2.47;100.00;96145.84;1019746;29;20989;-64
2023/03/29 02:40:55;;;;;;;2.28;1.38;;;;;;;2.54;100.00;96157.78;1016000;29;20028;-63
2023/03/29 02:41:26;;;;;;;2.08;1.58;;;;;;;2.52;100.00;96159.00;1015775;29;20034;-65
2023/03/29 02:41:56;;;;;;;4.95;1.90;;;;;;;2.55;100.00;96161.19;1019670;29;20031;-63
2023/03/29 02:42:27;;;;;;;2.25;1.70;;;;;;;2.56;100.00;96160.97;1018173;29;20453;-64
2023/03/29 02:42:57;;;;;;;2.25;1.75;;;;;;;2.58;100.00;96158.19;1015796;29;20039;-64
2023/03/29 02:43:28;;;;;;;2.22;1.73;;;;;;;2.57;100.00;96161.78;1011689;29;20028;-64
2023/03/29 02:43:58;;;;;;;3.13;2.13;;;;;;;2.49;100.00;96147.25;1011683;29;20029;-63
2023/03/29 02:44:30;;;;;;;3.28;1.58;;;;;;;2.55;100.00;96164.56;1018903;29;20024;-63